createdAt,value
2017-12-03T00:01:59.306Z,20.00
2017-12-03T00:04:28.138Z,20.80
2017-12-03T00:06:57.037Z,19.90
2017-12-03T00:09:25.895Z,21.10
2017-12-03T00:11:54.722Z,20.33
2017-12-03T00:14:23.585Z,18.57
2017-12-03T00:16:52.485Z,19.77
2017-12-03T00:19:21.317Z,19.57
2017-12-03T00:21:50.174Z,19.47
2017-12-03T00:24:19.004Z,20.23
2017-12-03T00:26:47.848Z,21.90
2017-12-03T00:29:16.688Z,20.33
2017-12-03T00:31:45.535Z,22.57
2017-12-03T00:34:14.412Z,24.40
2017-12-03T00:36:43.917Z,24.33
2017-12-03T00:39:12.820Z,23.10
2017-12-03T00:41:41.643Z,24.60
2017-12-03T00:44:10.648Z,21.25
2017-12-03T00:46:40.227Z,15.57
2017-12-03T00:49:09.814Z,16.23
2017-12-03T00:51:39.410Z,16.70
2017-12-03T00:54:09.086Z,17.57
2017-12-03T00:56:37.994Z,18.43
2017-12-03T00:59:06.920Z,19.73
2017-12-03T01:01:36.046Z,18.70
2017-12-03T01:04:04.910Z,17.37
2017-12-03T01:06:33.776Z,16.80
2017-12-03T01:09:02.614Z,13.70
2017-12-03T01:11:31.610Z,13.23
2017-12-03T01:14:00.440Z,14.43
2017-12-03T01:16:29.443Z,13.67
2017-12-03T01:18:58.346Z,14.77
2017-12-03T01:21:27.180Z,11.63
2017-12-03T01:23:56.006Z,12.80
2017-12-03T01:26:24.867Z,13.77
2017-12-03T01:28:53.715Z,17.10
2017-12-03T01:31:22.581Z,11.70
2017-12-03T01:33:51.435Z,12.00
2017-12-03T01:36:20.371Z,10.40
2017-12-03T01:38:49.361Z,15.73
2017-12-03T01:41:18.258Z,14.93
2017-12-03T01:43:47.087Z,14.10
2017-12-03T01:46:15.919Z,13.37
2017-12-03T01:48:44.755Z,12.43
2017-12-03T01:51:13.595Z,18.50
2017-12-03T01:53:42.926Z,13.73
2017-12-03T01:56:12.507Z,14.17
2017-12-03T01:58:42.118Z,13.87
2017-12-03T02:01:11.834Z,17.27
2017-12-03T02:03:41.462Z,23.40
2017-12-03T02:06:10.290Z,16.10
2017-12-03T02:08:39.135Z,16.57
2017-12-03T02:11:07.979Z,17.50
2017-12-03T02:13:36.840Z,15.25
2017-12-03T02:16:05.674Z,14.47
2017-12-03T02:18:34.514Z,15.43
2017-12-03T02:21:03.583Z,13.47
2017-12-03T02:23:32.675Z,13.67
2017-12-03T02:26:01.509Z,13.00
2017-12-03T02:28:30.353Z,13.07
2017-12-03T02:30:59.247Z,14.27
2017-12-03T02:33:28.088Z,11.77
2017-12-03T02:35:56.920Z,12.40
2017-12-03T02:38:25.751Z,12.37
2017-12-03T02:40:54.601Z,12.73
2017-12-03T02:43:23.500Z,12.80
2017-12-03T02:45:52.334Z,12.80
2017-12-03T02:48:21.171Z,14.73
2017-12-03T02:50:50.001Z,12.47
2017-12-03T02:53:18.851Z,14.47
2017-12-03T02:55:47.689Z,15.80
2017-12-03T02:58:16.698Z,16.37
2017-12-03T03:00:45.528Z,15.00
2017-12-03T03:03:15.122Z,15.03
2017-12-03T03:05:44.698Z,13.30
2017-12-03T03:08:14.294Z,13.43
2017-12-03T03:10:43.888Z,11.83
2017-12-03T03:13:13.507Z,14.33
2017-12-03T03:15:42.338Z,12.60
2017-12-03T03:18:11.181Z,13.97
2017-12-03T03:20:40.054Z,13.57
2017-12-03T03:23:08.883Z,14.83
2017-12-03T03:25:37.762Z,16.70
2017-12-03T03:28:06.606Z,16.20
2017-12-03T03:30:35.436Z,13.90
2017-12-03T03:33:04.281Z,14.40
2017-12-03T03:35:33.207Z,16.00
2017-12-03T03:38:02.038Z,16.03
2017-12-03T03:40:30.879Z,14.53
2017-12-03T03:42:59.711Z,17.03
2017-12-03T03:45:28.551Z,15.47
2017-12-03T03:47:57.402Z,15.52
2017-12-03T03:50:26.234Z,14.43
2017-12-03T03:52:55.099Z,16.17
2017-12-03T03:55:24.000Z,15.37
2017-12-03T03:57:52.834Z,16.30
2017-12-03T04:00:21.662Z,17.60
2017-12-03T04:02:50.554Z,15.73
2017-12-03T04:05:20.010Z,20.27
2017-12-03T04:07:48.838Z,22.17
2017-12-03T04:10:18.146Z,19.25
2017-12-03T04:12:46.975Z,19.00
2017-12-03T04:15:16.582Z,16.67
2017-12-03T04:17:47.366Z,15.60
2017-12-03T04:20:16.937Z,15.97
2017-12-03T04:22:46.527Z,18.17
2017-12-03T04:25:16.113Z,17.60
2017-12-03T04:27:45.691Z,16.30
2017-12-03T04:30:15.272Z,17.33
2017-12-03T04:32:44.114Z,14.47
2017-12-03T04:35:12.951Z,16.80
2017-12-03T04:37:42.441Z,17.30
2017-12-03T04:40:11.364Z,15.57
2017-12-03T04:42:40.189Z,16.83
2017-12-03T04:45:09.027Z,13.70
2017-12-03T04:47:37.866Z,15.90
2017-12-03T04:50:06.695Z,17.83
2017-12-03T04:52:35.521Z,14.50
2017-12-03T04:55:04.370Z,16.27
2017-12-03T04:57:33.202Z,16.70
2017-12-03T05:00:02.046Z,17.17
2017-12-03T05:02:30.886Z,17.00
2017-12-03T05:04:59.730Z,15.97
2017-12-03T05:07:28.558Z,16.53
2017-12-03T05:09:57.499Z,14.73
2017-12-03T05:12:26.340Z,14.63
2017-12-03T05:14:55.166Z,15.70
2017-12-03T05:17:24.049Z,13.43
2017-12-03T05:19:52.987Z,14.47
2017-12-03T05:22:21.814Z,16.03
2017-12-03T05:24:50.773Z,19.07
2017-12-03T05:27:19.605Z,17.43
2017-12-03T05:29:48.548Z,15.90
2017-12-03T05:32:18.131Z,15.70
2017-12-03T05:34:47.714Z,16.87
2017-12-03T05:37:17.349Z,14.57
2017-12-03T05:39:46.963Z,13.20
2017-12-03T05:42:15.795Z,18.03
2017-12-03T05:44:44.627Z,12.93
2017-12-03T05:47:13.474Z,15.70
2017-12-03T05:49:42.513Z,17.57
2017-12-03T05:52:11.344Z,18.17
2017-12-03T05:54:40.190Z,18.20
2017-12-03T05:57:09.110Z,16.47
2017-12-03T05:59:37.947Z,18.80
2017-12-03T06:02:06.785Z,20.10
2017-12-03T06:04:35.614Z,21.83
2017-12-03T06:07:04.442Z,18.80
2017-12-03T06:09:33.348Z,20.90
2017-12-03T06:12:02.194Z,21.53
2017-12-03T06:14:31.022Z,22.80
2017-12-03T06:16:59.900Z,22.43
2017-12-03T06:19:28.706Z,20.58
2017-12-03T06:21:57.692Z,21.73
2017-12-03T06:24:26.535Z,18.30
2017-12-03T06:26:55.376Z,20.17
2017-12-03T06:29:24.265Z,21.63
2017-12-03T06:31:53.172Z,24.90
2017-12-03T06:34:22.002Z,21.33
2017-12-03T06:36:50.837Z,18.33
2017-12-03T06:39:20.297Z,19.10
2017-12-03T06:41:49.875Z,23.20
2017-12-03T06:44:19.450Z,23.80
2017-12-03T06:46:49.039Z,18.10
2017-12-03T06:49:18.665Z,20.03
2017-12-03T06:51:47.506Z,23.50
2017-12-03T06:54:16.345Z,21.07
2017-12-03T06:56:45.179Z,17.17
2017-12-03T06:59:14.015Z,22.67
2017-12-03T07:01:42.857Z,27.33
2017-12-03T07:04:11.680Z,24.57
2017-12-03T07:06:40.595Z,22.67
2017-12-03T07:09:09.483Z,23.27
2017-12-03T07:11:38.317Z,25.07
2017-12-03T07:14:07.150Z,23.60
2017-12-03T07:16:36.010Z,25.77
2017-12-03T07:19:04.978Z,28.33
2017-12-03T07:21:33.810Z,24.33
2017-12-03T07:24:02.654Z,23.77
2017-12-03T07:26:31.482Z,21.17
2017-12-03T07:29:00.382Z,24.40
2017-12-03T07:31:29.225Z,19.93
2017-12-03T07:33:58.060Z,19.87
2017-12-03T07:36:26.900Z,22.20
2017-12-03T07:38:55.832Z,23.03
2017-12-03T07:41:24.671Z,19.73
2017-12-03T07:43:53.502Z,21.73
2017-12-03T07:46:22.362Z,22.20
2017-12-03T07:48:51.939Z,22.80
2017-12-03T07:51:21.590Z,21.30
2017-12-03T07:53:51.269Z,22.23
2017-12-03T07:56:20.855Z,23.73
2017-12-03T07:58:50.495Z,22.53
2017-12-03T08:01:19.367Z,20.03
2017-12-03T08:03:48.208Z,21.80
2017-12-03T08:06:17.030Z,22.30
2017-12-03T08:08:45.871Z,21.83
2017-12-03T08:11:14.735Z,23.20
2017-12-03T08:13:43.568Z,21.80
2017-12-03T08:16:12.414Z,18.00
2017-12-03T08:18:41.248Z,20.47
2017-12-03T08:21:10.078Z,19.97
2017-12-03T08:23:38.986Z,21.60
2017-12-03T08:26:08.711Z,24.60
2017-12-03T08:28:37.536Z,23.40
2017-12-03T08:31:06.382Z,22.77
2017-12-03T08:33:35.220Z,24.00
2017-12-03T08:36:04.218Z,23.80
2017-12-03T08:38:33.245Z,18.80
2017-12-03T08:41:02.092Z,20.60
2017-12-03T08:43:30.921Z,17.50
2017-12-03T08:45:59.775Z,17.43
2017-12-03T08:48:28.603Z,18.90
2017-12-03T08:50:57.604Z,19.17
2017-12-03T08:53:26.500Z,18.73
2017-12-03T08:55:55.307Z,20.77
2017-12-03T08:58:24.231Z,20.00
2017-12-03T09:00:57.031Z,20.70
2017-12-03T09:03:25.871Z,23.83
2017-12-03T09:05:54.703Z,25.30
2017-12-03T09:08:24.303Z,19.37
2017-12-03T09:10:53.887Z,22.40
2017-12-03T09:13:23.471Z,20.40
2017-12-03T09:15:53.069Z,21.53
2017-12-03T09:18:21.902Z,21.70
2017-12-03T09:20:50.730Z,22.17
2017-12-03T09:23:19.589Z,20.37
2017-12-03T09:25:48.532Z,20.67
2017-12-03T09:28:17.520Z,22.50
2017-12-03T09:30:46.528Z,22.80
2017-12-03T09:33:15.328Z,22.07
2017-12-03T09:35:44.166Z,25.40
2017-12-03T09:38:13.019Z,26.67
2017-12-03T09:40:41.853Z,30.47
2017-12-03T09:43:10.769Z,29.63
2017-12-03T09:45:39.615Z,30.27
2017-12-03T09:48:08.445Z,29.17
2017-12-03T09:50:37.337Z,34.13
2017-12-03T09:53:06.225Z,31.90
2017-12-03T09:55:35.059Z,29.47
2017-12-03T09:58:03.938Z,29.23
2017-12-03T10:00:32.763Z,33.90
2017-12-03T10:03:01.597Z,31.07
2017-12-03T10:05:30.444Z,35.27
2017-12-03T10:07:59.290Z,36.80
2017-12-03T10:10:28.162Z,34.30
2017-12-03T10:12:57.073Z,34.67
2017-12-03T10:15:26.658Z,34.20
2017-12-03T10:17:56.226Z,31.83
2017-12-03T10:20:25.974Z,36.43
2017-12-03T10:22:55.546Z,32.63
2017-12-03T10:25:25.146Z,29.07
2017-12-03T10:27:54.136Z,30.47
2017-12-03T10:30:23.206Z,29.87
2017-12-03T10:32:52.064Z,26.93
2017-12-03T10:35:20.910Z,27.33
2017-12-03T10:37:55.690Z,32.73
2017-12-03T10:40:25.278Z,26.53
2017-12-03T10:42:54.109Z,27.77
2017-12-03T10:45:22.943Z,30.70
2017-12-03T10:47:51.992Z,32.47
2017-12-03T10:50:20.837Z,37.70
2017-12-03T10:52:49.680Z,37.30
2017-12-03T10:55:18.547Z,37.77
2017-12-03T10:57:47.565Z,36.10
2017-12-03T11:00:16.401Z,38.00
2017-12-03T11:02:45.247Z,36.33
2017-12-03T11:05:14.079Z,39.60
2017-12-03T11:07:42.922Z,38.00
2017-12-03T11:10:11.789Z,35.93
2017-12-03T11:12:40.614Z,36.90
2017-12-03T11:15:09.438Z,38.10
2017-12-03T11:17:38.358Z,39.40
2017-12-03T11:20:07.208Z,38.57
2017-12-03T11:22:36.038Z,36.50
2017-12-03T11:25:04.890Z,37.77
2017-12-03T11:27:33.730Z,39.73
2017-12-03T11:30:02.566Z,39.80
2017-12-03T11:32:31.426Z,40.00
2017-12-03T11:35:00.254Z,32.67
2017-12-03T11:37:29.086Z,32.77
2017-12-03T11:39:57.930Z,37.77
2017-12-03T11:42:27.507Z,35.07
2017-12-03T11:44:57.085Z,39.67
2017-12-03T11:47:26.795Z,37.60
2017-12-03T11:49:56.362Z,30.43
2017-12-03T11:52:25.395Z,30.57
2017-12-03T11:54:54.247Z,31.67
2017-12-03T11:57:23.073Z,32.10
2017-12-03T11:59:51.977Z,30.50
2017-12-03T12:02:20.934Z,30.67
2017-12-03T12:04:49.767Z,28.30
2017-12-03T12:07:18.607Z,28.50
2017-12-03T12:09:47.518Z,29.93
2017-12-03T12:12:16.378Z,29.40
2017-12-03T12:14:45.210Z,33.43
2017-12-03T12:17:14.046Z,31.40
2017-12-03T12:19:42.878Z,32.10
2017-12-03T12:22:11.711Z,31.80
2017-12-03T12:24:40.622Z,28.07
2017-12-03T12:27:09.467Z,29.50
2017-12-03T12:29:38.354Z,28.43
2017-12-03T12:32:07.202Z,31.70
2017-12-03T12:34:36.033Z,27.10
2017-12-03T12:37:04.948Z,32.43
2017-12-03T12:39:33.811Z,25.60
2017-12-03T12:42:02.657Z,24.90
2017-12-03T12:44:31.489Z,21.33
2017-12-03T12:47:00.343Z,22.83
2017-12-03T12:49:29.179Z,21.63
2017-12-03T12:51:58.749Z,31.00
2017-12-03T12:54:28.387Z,24.03
2017-12-03T12:56:57.935Z,27.03
2017-12-03T12:59:27.515Z,25.20
2017-12-03T13:01:57.095Z,21.67
2017-12-03T13:04:26.023Z,26.00
2017-12-03T13:06:54.850Z,19.93
2017-12-03T13:09:23.701Z,20.07
2017-12-03T13:11:52.538Z,20.87
2017-12-03T13:14:21.366Z,20.17
2017-12-03T13:16:50.215Z,17.80
2017-12-03T13:19:19.038Z,15.83
2017-12-03T13:21:47.912Z,16.97
2017-12-03T13:24:16.730Z,14.03
2017-12-03T13:26:45.640Z,15.37
2017-12-03T13:29:14.454Z,15.00
2017-12-03T13:31:43.404Z,15.50
2017-12-03T13:34:12.234Z,15.90
2017-12-03T13:36:41.069Z,12.43
2017-12-03T13:39:09.963Z,15.40
2017-12-03T13:41:38.793Z,17.70
2017-12-03T13:44:07.630Z,15.60
2017-12-03T13:46:36.531Z,15.57
2017-12-03T13:49:05.369Z,14.73
2017-12-03T13:51:34.211Z,23.13
2017-12-03T13:54:03.057Z,17.87
2017-12-03T13:56:31.999Z,14.77
2017-12-03T13:59:00.821Z,16.23
2017-12-03T14:01:29.951Z,18.52
2017-12-03T14:03:59.521Z,18.93
2017-12-03T14:06:29.106Z,19.40
2017-12-03T14:08:58.718Z,17.20
2017-12-03T14:11:28.298Z,14.77
2017-12-03T14:13:57.130Z,17.90
2017-12-03T14:16:25.970Z,17.90
2017-12-03T14:18:54.802Z,19.07
2017-12-03T14:21:23.631Z,12.33
2017-12-03T14:23:52.480Z,20.13
2017-12-03T14:26:21.309Z,20.30
2017-12-03T14:28:50.142Z,17.53
2017-12-03T14:31:18.988Z,21.90
2017-12-03T14:33:47.819Z,15.73
2017-12-03T14:36:16.731Z,16.63
2017-12-03T14:38:45.576Z,16.17
2017-12-03T14:41:14.401Z,16.93
2017-12-03T14:43:43.352Z,17.53
2017-12-03T14:46:12.196Z,21.60
2017-12-03T14:48:41.029Z,16.00
2017-12-03T14:51:09.853Z,18.80
2017-12-03T14:53:38.703Z,18.23
2017-12-03T14:56:07.629Z,16.13
2017-12-03T14:58:36.459Z,16.63
2017-12-03T15:01:05.303Z,18.50
2017-12-03T15:03:34.151Z,15.83
2017-12-03T15:06:03.014Z,14.20
2017-12-03T15:08:31.876Z,15.27
2017-12-03T15:11:01.036Z,14.77
2017-12-03T15:13:30.610Z,15.37
2017-12-03T15:16:00.212Z,14.10
2017-12-03T15:18:29.788Z,17.57
2017-12-03T15:20:59.364Z,15.33
2017-12-03T15:23:28.221Z,16.23
2017-12-03T15:25:57.094Z,18.23
2017-12-03T15:28:25.974Z,17.07
2017-12-03T15:30:54.842Z,17.63
2017-12-03T15:33:23.678Z,14.80
2017-12-03T15:35:52.544Z,18.40
2017-12-03T15:38:21.464Z,17.80
2017-12-03T15:40:50.289Z,15.77
2017-12-03T15:43:19.249Z,18.30
2017-12-03T15:45:48.097Z,15.37
2017-12-03T15:48:16.928Z,16.40
2017-12-03T15:50:45.770Z,17.63
2017-12-03T15:53:14.645Z,16.63
2017-12-03T15:55:43.483Z,19.47
2017-12-03T15:58:12.310Z,16.00
2017-12-03T16:00:41.163Z,19.73
2017-12-03T16:03:10.019Z,19.07
2017-12-03T16:05:38.863Z,16.27
2017-12-03T16:08:07.708Z,22.93
2017-12-03T16:10:36.539Z,20.97
2017-12-03T16:13:05.403Z,19.83
2017-12-03T16:15:34.288Z,21.87
2017-12-03T16:18:03.121Z,19.53
2017-12-03T16:20:32.123Z,20.50
2017-12-03T16:23:01.787Z,18.60
2017-12-03T16:25:31.362Z,19.67
2017-12-03T16:28:01.022Z,21.90
2017-12-03T16:30:30.603Z,21.00
2017-12-03T16:32:59.434Z,21.00
2017-12-03T16:35:28.274Z,25.90
2017-12-03T16:37:57.110Z,23.20
2017-12-03T16:40:25.938Z,24.97
2017-12-03T16:42:54.778Z,24.67
2017-12-03T16:45:23.614Z,27.93
2017-12-03T16:47:52.447Z,25.27
2017-12-03T16:50:21.294Z,27.73
2017-12-03T16:52:50.122Z,32.50
2017-12-03T16:55:18.954Z,31.83
2017-12-03T16:57:47.802Z,31.40
2017-12-03T17:00:16.638Z,30.60
2017-12-03T17:02:45.462Z,29.53
2017-12-03T17:05:14.380Z,30.13
2017-12-03T17:07:43.211Z,29.57
2017-12-03T17:10:12.059Z,32.30
2017-12-03T17:12:40.895Z,30.67
2017-12-03T17:15:09.731Z,38.23
2017-12-03T17:17:38.555Z,33.10
2017-12-03T17:20:07.415Z,37.40
2017-12-03T17:22:36.295Z,37.93
2017-12-03T17:25:05.154Z,33.07
2017-12-03T17:27:34.085Z,42.53
2017-12-03T17:30:03.451Z,35.83
2017-12-03T17:32:33.041Z,32.13
2017-12-03T17:35:02.636Z,35.50
2017-12-03T17:37:32.314Z,32.70
2017-12-03T17:40:01.906Z,38.07
2017-12-03T17:42:30.738Z,35.20
2017-12-03T17:44:59.566Z,34.90
2017-12-03T17:47:28.412Z,33.37
2017-12-03T17:49:57.272Z,34.90
2017-12-03T17:52:26.105Z,39.83
2017-12-03T17:54:55.050Z,39.87
2017-12-03T17:57:23.953Z,33.10
2017-12-03T17:59:52.859Z,40.00
2017-12-03T18:02:21.772Z,37.57
2017-12-03T18:04:50.622Z,41.43
2017-12-03T18:07:19.525Z,38.73
2017-12-03T18:09:48.369Z,38.53
2017-12-03T18:12:17.223Z,40.97
2017-12-03T18:14:46.137Z,39.90
2017-12-03T18:17:14.987Z,41.60
2017-12-03T18:19:43.962Z,38.77
2017-12-03T18:22:12.783Z,42.17
2017-12-03T18:24:41.689Z,40.03
2017-12-03T18:27:10.683Z,38.20
2017-12-03T18:29:39.530Z,36.40
2017-12-03T18:32:08.521Z,41.67
2017-12-03T18:34:37.354Z,46.67
2017-12-03T18:37:06.241Z,44.50
2017-12-03T18:39:35.122Z,37.23
2017-12-03T18:42:04.698Z,40.30
2017-12-03T18:44:34.398Z,37.80
2017-12-03T18:47:03.994Z,38.83
2017-12-03T18:49:33.613Z,35.00
2017-12-03T18:52:03.230Z,36.60
2017-12-03T18:54:32.118Z,37.37
2017-12-03T18:57:00.967Z,35.77
2017-12-03T18:59:29.819Z,39.50
2017-12-03T19:01:58.662Z,32.27
2017-12-03T19:04:27.506Z,33.00
2017-12-03T19:06:56.369Z,34.33
2017-12-03T19:09:25.275Z,32.80
2017-12-03T19:11:54.163Z,34.67
2017-12-03T19:14:23.043Z,33.97
2017-12-03T19:16:51.903Z,30.50
2017-12-03T19:19:21.175Z,34.40
2017-12-03T19:21:50.007Z,35.90
2017-12-03T19:24:18.855Z,34.43
2017-12-03T19:26:48.546Z,31.10
2017-12-03T19:29:17.421Z,36.93
2017-12-03T19:31:46.332Z,35.77
2017-12-03T19:34:15.226Z,34.77
2017-12-03T19:36:44.067Z,32.20
2017-12-03T19:39:12.910Z,32.07
2017-12-03T19:41:41.776Z,28.50
2017-12-03T19:44:10.636Z,35.10
2017-12-03T19:46:39.558Z,37.23
2017-12-03T19:49:08.405Z,34.50
2017-12-03T19:51:37.247Z,40.30
2017-12-03T19:54:06.668Z,30.03
2017-12-03T19:56:36.254Z,32.90
2017-12-03T19:59:05.843Z,32.10
2017-12-03T20:01:35.431Z,31.60
2017-12-03T20:04:05.067Z,29.60
2017-12-03T20:06:34.659Z,30.37
2017-12-03T20:09:03.511Z,35.63
2017-12-03T20:11:32.349Z,34.87
2017-12-03T20:14:01.247Z,37.23
2017-12-03T20:16:30.793Z,34.60
2017-12-03T20:18:59.619Z,33.23
2017-12-03T20:21:28.487Z,32.60
2017-12-03T20:23:57.514Z,34.83
2017-12-03T20:26:26.540Z,35.77
2017-12-03T20:28:55.386Z,39.47
2017-12-03T20:31:24.225Z,36.30
2017-12-03T20:33:53.054Z,37.63
2017-12-03T20:36:21.919Z,34.47
2017-12-03T20:38:50.763Z,32.23
2017-12-03T20:41:19.656Z,33.20
2017-12-03T20:43:48.503Z,35.03
2017-12-03T20:46:17.333Z,39.20
2017-12-03T20:48:46.179Z,35.80
2017-12-03T20:51:15.055Z,30.87
2017-12-03T20:53:43.893Z,35.80
2017-12-03T20:56:12.911Z,35.37
2017-12-03T20:58:41.759Z,36.53
2017-12-03T21:01:10.698Z,36.93
2017-12-03T21:03:39.532Z,34.53
2017-12-03T21:06:08.663Z,34.23
2017-12-03T21:08:37.926Z,36.03
2017-12-03T21:11:07.905Z,35.63
2017-12-03T21:13:37.719Z,34.37
2017-12-03T21:16:07.501Z,35.33
2017-12-03T21:18:37.614Z,34.73
2017-12-03T21:21:07.377Z,33.50
2017-12-03T21:23:38.046Z,36.40
2017-12-03T21:26:08.432Z,31.17
2017-12-03T21:28:38.034Z,52.57
2017-12-03T21:31:07.718Z,33.23
2017-12-03T21:33:37.296Z,30.07
2017-12-03T21:36:06.960Z,35.97
2017-12-03T21:38:35.850Z,33.00
2017-12-03T21:41:04.686Z,34.07
2017-12-03T21:43:33.530Z,32.37
2017-12-03T21:46:02.386Z,31.37
2017-12-03T21:48:31.266Z,38.87
2017-12-03T21:51:00.268Z,30.80
2017-12-03T21:53:29.101Z,31.50
2017-12-03T21:55:58.087Z,36.13
2017-12-03T21:58:26.883Z,32.43
2017-12-03T22:00:55.727Z,32.87
2017-12-03T22:03:24.562Z,36.70
2017-12-03T22:05:53.442Z,33.20
2017-12-03T22:08:22.335Z,32.47
2017-12-03T22:10:51.175Z,31.17
2017-12-03T22:13:20.019Z,34.57
2017-12-03T22:15:48.855Z,34.70
2017-12-03T22:18:17.782Z,31.17
2017-12-03T22:20:46.674Z,35.73
2017-12-03T22:23:15.501Z,32.33
2017-12-03T22:25:44.322Z,36.80
2017-12-03T22:28:13.166Z,31.03
2017-12-03T22:30:41.994Z,33.57
2017-12-03T22:33:10.824Z,34.33
2017-12-03T22:35:40.178Z,36.35
2017-12-03T22:38:09.756Z,34.40
2017-12-03T22:40:39.446Z,35.90
2017-12-03T22:43:09.036Z,34.43
2017-12-03T22:45:38.677Z,35.17
2017-12-03T22:48:07.506Z,39.57
2017-12-03T22:50:37.201Z,36.77
2017-12-03T22:53:06.045Z,36.37
2017-12-03T22:55:34.874Z,32.90
2017-12-03T22:58:03.822Z,37.50
2017-12-03T23:00:33.641Z,39.33
2017-12-03T23:03:02.522Z,36.53
2017-12-03T23:05:31.412Z,36.13
2017-12-03T23:08:00.241Z,33.90
2017-12-03T23:10:29.135Z,36.63
2017-12-03T23:12:58.035Z,36.57
2017-12-03T23:15:26.871Z,36.10
2017-12-03T23:17:55.699Z,30.87
2017-12-03T23:20:24.635Z,33.03
2017-12-03T23:22:53.571Z,33.50
2017-12-03T23:25:22.404Z,34.73
2017-12-03T23:27:51.255Z,33.57
2017-12-03T23:30:20.078Z,34.93
2017-12-03T23:32:49.009Z,35.67
2017-12-03T23:35:17.903Z,32.17
2017-12-03T23:37:46.795Z,32.77
2017-12-03T23:40:15.622Z,35.70
2017-12-03T23:42:44.470Z,35.70
2017-12-03T23:45:13.306Z,29.47
2017-12-03T23:47:42.136Z,31.17
2017-12-03T23:50:11.999Z,35.47
2017-12-03T23:52:41.574Z,30.23
2017-12-03T23:55:11.149Z,30.33
2017-12-03T23:57:40.790Z,31.90
